Monroe, LA

8:08 PM CDT on March 29, 2017 (GMT -0500)
Ouachita River | | Change Station
Active Advisory: Tornado Watch

Elev 102 ft 32.52 °N, 92.13 °W | Updated 4 minutes ago

Thunderstorm
Thunderstorm
66.3 °F
Feels Like 66.3 °F
N
3.1
Wind Variable Wind from NW

Today
High -- | Low -- °F
--% Chance of Precip.
Yesterday
High -- | Low -- °F
Precip. -- in
Pressure 29.86 in
Visibility 4.0 miles
Clouds Few 2700 ft
Mostly Cloudy 3400 ft
Overcast 10000 ft
Dew Point 64 °F
Humidity 91%
Rainfall 0.76 in
Snow Depth Not available.
7:00 AM 7:26 PM
Waxing Crescent, 5% visible
SPECI KMLU 300058Z 29017G31KT 4SM +TSRA BR FEW027 BKN034 OVC100 19/17 A2986 RMK AO2 PK WND 28026/0054 WSHFT 0044 LTG DSNT ALQDS TSB57 P0002 T01940172
Pressure 29.86 in
Visibility 4.0 miles
Clouds Few 2700 ft
Mostly Cloudy 3400 ft
Overcast 10000 ft
Dew Point 64 °F
Humidity 91%
Rainfall 0.76 in
Snow Depth Not available.
7:00 AM 7:26 PM
Waxing Crescent, 5% visible
SPECI KMLU 300058Z 29017G31KT 4SM +TSRA BR FEW027 BKN034 OVC100 19/17 A2986 RMK AO2 PK WND 28026/0054 WSHFT 0044 LTG DSNT ALQDS TSB57 P0002 T01940172

Get Your Daily Forecast Email!

Thanks for signing up!

Be on the lookout for a verification email in your inbox.

You'll start receiving severe weather alerts in your inbox..

×

10-Day Weather Forecast

Almanac

Astronomy

Mar. 29, 2017 Rise Set
Actual Time
Civil Twilight
Nautical Twilight
Astronomical Twilight
Moon
Length of Visible Light
Length of Day
Tomorrow will be .
, % of the Moon is Illuminated

Today's Extremes

State Highs State Lows

Community

WunderPhotos

Upload Photos

1,962,540 photos uploaded!

WunderBlog® & News

Nearby

Air Quality

  Air Quality AQ Index Pollutant
Not available.

Snow Depth

Station Depth Elevation

Earthquake Activity

City Distance Mag. Time & Date
Minimum magnitude displayed is 2.5.

Earthquake Activity

City Distance Mag. Time & Date
Minimum magnitude displayed is 2.5.

Coastal Water Temperatures

Place Temperature

Stations

Nearby Weather Stations

Station Location Temp. Windchill Dew Point Humidity Wind Precip. Elev Updated Type
                   

Watches & Warnings

Tornado Watch
Issued: 8:03 PM CDT Mar. 29, 2017 – National Weather Service

Tornado Watch 101 remains in effect until 300 am CDT for the
following locations

La
. Louisiana parishes included are

Acadia Allen Avoyelles
Beauregard Calcasieu Caldwell
Cameron Catahoula Concordia
East Baton Rouge East Carroll East Feliciana
Evangeline Franklin Grant
Iberia Iberville Jackson
Jefferson Davis Lafayette La Salle
Madison Morehouse Natchitoches
Ouachita Pointe Coupee Rapides
Richland St. Landry St. Martin
St. Mary Tensas Vermilion
West Baton Rouge West Carroll West Feliciana
Winn